Time;durP1;ratioP1;P1;durP2;ratioP2;P2;SDS_P1;SDS_P2;PMS_P1;PMS_P2;Temp;Humidity;BMP_temperature;BMP_pressure;BME280_temperature;BME280_humidity;BME280_pressure;Samples;Min_cycle;Max_cycle;Signal;HPM_P1;HPM_P2
2023/08/18 00:01:22;;;;;;;7.25;4.80;;;25.10;99.90;;;;;;9594488;23;20213;-91
2023/08/18 00:05:08;;;;;;;5.65;5.05;;;25.00;99.90;;;;;;9593957;23;20194;-90
2023/08/18 00:08:54;;;;;;;6.03;5.38;;;25.00;99.90;;;;;;9594181;23;20162;-91
2023/08/18 00:12:39;;;;;;;5.38;4.88;;;25.00;99.90;;;;;;9594535;23;20155;-90
2023/08/18 00:16:25;;;;;;;6.85;4.75;;;24.90;99.90;;;;;;9594398;23;20182;-90
2023/08/18 00:20:11;;;;;;;5.47;4.97;;;24.80;99.90;;;;;;9594226;23;20163;-90
2023/08/18 00:23:56;;;;;;;6.40;4.40;;;24.80;99.90;;;;;;9593895;23;20195;-91
2023/08/18 00:27:42;;;;;;;5.82;4.85;;;24.70;99.90;;;;;;9594391;23;20629;-91
2023/08/18 00:31:28;;;;;;;7.05;4.80;;;24.70;99.90;;;;;;9594484;23;20606;-91
2023/08/18 00:35:13;;;;;;;5.78;4.82;;;24.60;99.90;;;;;;9593976;23;20502;-90
2023/08/18 00:38:59;;;;;;;8.80;4.80;;;24.60;99.90;;;;;;9594155;23;20155;-91
2023/08/18 00:42:45;;;;;;;6.03;5.10;;;24.60;99.90;;;;;;9594395;23;20163;-91
2023/08/18 00:46:31;;;;;;;5.47;4.97;;;24.50;99.90;;;;;;9593897;23;20190;-91
2023/08/18 00:50:18;;;;;;;6.10;4.90;;;24.50;99.90;;;;;;9594328;23;20186;-91
2023/08/18 00:54:05;;;;;;;5.25;4.25;;;24.50;99.90;;;;;;9594200;23;20217;-91
2023/08/18 00:57:51;;;;;;;5.90;5.13;;;24.50;99.90;;;;;;9593824;23;20190;-91
2023/08/18 01:01:37;;;;;;;5.45;4.78;;;24.30;99.90;;;;;;9593855;23;20189;-91
2023/08/18 01:05:22;;;;;;;5.47;4.78;;;24.30;99.90;;;;;;9593786;23;20194;-90
2023/08/18 01:09:08;;;;;;;5.93;4.93;;;24.20;99.90;;;;;;9594361;23;20159;-91
2023/08/18 01:13:15;;;;;;;5.80;5.20;;;24.20;99.90;;;;;;9595943;23;20246;-91
2023/08/18 01:17:17;;;;;;;7.90;4.68;;;24.20;99.90;;;;;;9595715;23;20599;-91
2023/08/18 01:21:07;;;;;;;5.50;5.00;;;24.10;99.90;;;;;;9595237;23;20143;-91
2023/08/18 01:25:01;;;;;;;5.63;5.03;;;24.10;99.90;;;;;;9593218;23;20285;-91
2023/08/18 01:28:47;;;;;;;10.38;5.32;;;24.10;99.90;;;;;;9593712;23;20150;-91
2023/08/18 01:33:03;;;;;;;5.97;5.38;;;24.00;99.90;;;;;;9593619;23;20158;-91
2023/08/18 01:36:51;;;;;;;5.40;4.90;;;24.00;99.90;;;;;;9552341;23;20211;-91
2023/08/18 01:40:38;;;;;;;8.05;5.28;;;24.00;99.90;;;;;;9593700;23;20166;-91
2023/08/18 01:44:24;;;;;;;11.20;5.30;;;23.90;99.90;;;;;;9593528;23;20269;-91
2023/08/18 01:48:10;;;;;;;8.80;5.65;;;23.90;99.90;;;;;;9596602;23;20830;-91
2023/08/18 01:51:55;;;;;;;5.65;5.15;;;23.90;99.90;;;;;;9596417;23;20159;-91
2023/08/18 01:55:43;;;;;;;7.25;4.97;;;23.80;99.90;;;;;;9596382;23;20182;-91
2023/08/18 01:59:28;;;;;;;6.97;5.20;;;23.80;99.90;;;;;;9596974;23;20159;-91
2023/08/18 02:03:14;;;;;;;5.93;5.32;;;23.80;99.90;;;;;;9596414;23;20162;-92
2023/08/18 02:06:59;;;;;;;6.40;5.20;;;23.70;99.90;;;;;;9596740;23;20209;-91
2023/08/18 02:10:45;;;;;;;5.60;5.00;;;23.70;99.90;;;;;;9596414;23;20209;-91
2023/08/18 02:14:31;;;;;;;6.90;5.32;;;23.60;99.90;;;;;;9596105;23;20166;-91
2023/08/18 02:18:16;;;;;;;7.15;5.72;;;23.60;99.90;;;;;;9596147;23;20182;-91
2023/08/18 02:22:02;;;;;;;7.28;5.15;;;23.50;99.90;;;;;;9596226;23;20163;-91
2023/08/18 02:25:47;;;;;;;6.60;5.55;;;23.50;99.90;;;;;;9596002;23;20194;-90
2023/08/18 02:29:33;;;;;;;6.00;5.40;;;23.50;99.90;;;;;;9596364;23;20155;-91
2023/08/18 02:33:19;;;;;;;6.22;5.53;;;23.50;99.90;;;;;;9596083;23;20155;-90
2023/08/18 02:37:04;;;;;;;6.13;5.10;;;23.40;99.90;;;;;;9596006;23;20185;-90
2023/08/18 02:40:51;;;;;;;9.75;5.57;;;23.40;99.90;;;;;;9595779;23;20161;-91
2023/08/18 02:44:37;;;;;;;9.10;5.43;;;23.30;99.90;;;;;;9595842;23;20178;-91
2023/08/18 02:48:27;;;;;;;6.43;5.80;;;23.30;99.90;;;;;;9595868;23;20193;-91
2023/08/18 02:52:12;;;;;;;7.93;5.35;;;23.30;99.90;;;;;;9595907;23;20155;-90
2023/08/18 02:55:58;;;;;;;9.55;5.85;;;23.30;99.90;;;;;;9595681;23;20228;-90
2023/08/18 02:59:44;;;;;;;6.10;5.53;;;23.20;99.90;;;;;;9595771;23;20159;-90
2023/08/18 03:03:29;;;;;;;7.28;5.47;;;23.20;99.90;;;;;;9595343;23;20162;-91
2023/08/18 03:07:15;;;;;;;6.20;5.63;;;23.10;99.90;;;;;;9595387;23;20174;-90
2023/08/18 03:11:01;;;;;;;9.20;5.68;;;23.10;99.90;;;;;;9595408;23;20209;-90
2023/08/18 03:14:47;;;;;;;6.07;5.47;;;23.00;99.90;;;;;;9595405;23;20577;-91
2023/08/18 03:18:33;;;;;;;6.00;5.40;;;23.00;99.90;;;;;;9595361;23;20166;-92
2023/08/18 03:22:19;;;;;;;5.95;5.45;;;23.00;99.90;;;;;;9595291;23;20190;-91
2023/08/18 03:26:05;;;;;;;6.40;5.50;;;23.00;99.90;;;;;;9595023;23;20654;-90
2023/08/18 03:29:51;;;;;;;6.38;5.78;;;22.90;99.90;;;;;;9597102;23;20646;-91
2023/08/18 03:33:37;;;;;;;9.23;5.70;;;22.90;99.90;;;;;;9595098;23;20181;-91
2023/08/18 03:37:22;;;;;;;8.85;6.07;;;22.90;99.90;;;;;;9594968;23;20178;-90
2023/08/18 03:41:08;;;;;;;5.90;5.40;;;22.90;99.90;;;;;;9595079;23;20525;-90
2023/08/18 03:44:53;;;;;;;6.72;6.13;;;22.90;99.90;;;;;;9594787;23;20515;-91
2023/08/18 03:48:39;;;;;;;6.13;5.53;;;22.80;99.90;;;;;;9594663;23;20213;-90
2023/08/18 03:52:24;;;;;;;6.40;5.80;;;22.80;99.90;;;;;;9594909;23;20621;-91
2023/08/18 03:56:10;;;;;;;6.90;6.30;;;22.70;99.90;;;;;;9595268;23;20190;-90
2023/08/18 03:59:56;;;;;;;7.20;6.32;;;22.70;99.90;;;;;;9594735;23;20159;-91
2023/08/18 04:03:43;;;;;;;6.68;5.95;;;22.60;99.90;;;;;;9594691;23;20208;-91
2023/08/18 04:07:33;;;;;;;7.03;6.32;;;22.60;99.90;;;;;;9595363;23;20232;-91
2023/08/18 04:11:19;;;;;;;6.63;6.03;;;22.60;99.90;;;;;;9594406;23;20713;-91
2023/08/18 04:15:05;;;;;;;6.53;5.93;;;22.60;99.90;;;;;;9594646;23;20186;-91
2023/08/18 04:18:51;;;;;;;8.18;6.47;;;22.60;99.90;;;;;;9594520;23;20522;-91
2023/08/18 04:22:37;;;;;;;6.47;5.85;;;22.50;99.90;;;;;;9594330;23;20701;-91
2023/08/18 04:26:23;;;;;;;6.53;5.93;;;22.50;99.90;;;;;;9594271;23;20210;-91
2023/08/18 04:30:10;;;;;;;7.13;6.05;;;22.50;99.90;;;;;;9594146;23;20185;-90
2023/08/18 04:33:56;;;;;;;11.65;6.03;;;22.40;99.90;;;;;;9595507;23;20154;-90
2023/08/18 04:37:42;;;;;;;8.88;5.93;;;22.40;99.90;;;;;;9594597;23;20209;-90
2023/08/18 04:41:27;;;;;;;7.38;6.00;;;22.40;99.90;;;;;;9595217;23;20163;-91
2023/08/18 04:45:13;;;;;;;6.47;5.68;;;22.40;99.90;;;;;;9596504;23;20186;-90
2023/08/18 04:48:59;;;;;;;6.53;5.82;;;22.40;99.90;;;;;;9596404;23;20158;-90
2023/08/18 04:52:45;;;;;;;5.80;5.30;;;22.30;99.90;;;;;;9600660;23;20594;-89
2023/08/18 04:56:32;;;;;;;9.82;6.10;;;22.30;99.90;;;;;;9594923;23;20664;-91
2023/08/18 05:00:22;;;;;;;6.65;5.93;;;22.30;99.90;;;;;;9596689;23;20241;-91
2023/08/18 05:04:09;;;;;;;5.75;5.25;;;22.30;99.90;;;;;;9594848;23;20175;-90
2023/08/18 05:07:54;;;;;;;7.03;5.70;;;22.30;99.90;;;;;;9596030;23;20178;-90
2023/08/18 05:11:40;;;;;;;8.20;5.95;;;22.30;99.90;;;;;;9594710;23;20159;-90
2023/08/18 05:15:26;;;;;;;6.30;5.70;;;22.30;99.90;;;;;;9593784;23;20696;-89
2023/08/18 05:19:11;;;;;;;9.23;6.55;;;22.30;99.90;;;;;;9594713;23;20672;-90
2023/08/18 05:22:57;;;;;;;10.27;7.95;;;22.30;99.90;;;;;;9592451;23;20174;-91
2023/08/18 05:26:43;;;;;;;6.70;6.00;;;22.30;99.90;;;;;;9592465;23;20186;-90
2023/08/18 05:30:29;;;;;;;6.28;5.38;;;22.30;99.90;;;;;;9593060;23;20157;-89
2023/08/18 05:34:14;;;;;;;6.43;5.78;;;22.20;99.90;;;;;;9592691;23;20170;-91
2023/08/18 05:38:00;;;;;;;7.05;5.32;;;22.30;99.90;;;;;;9592267;23;20189;-91
2023/08/18 05:41:46;;;;;;;5.90;5.18;;;22.20;99.90;;;;;;9592895;23;20189;-90
2023/08/18 05:45:35;;;;;;;5.68;5.18;;;22.20;99.90;;;;;;9591857;23;20738;-90
2023/08/18 05:49:21;;;;;;;6.13;5.07;;;22.20;99.90;;;;;;9592505;23;20155;-90
2023/08/18 05:53:06;;;;;;;6.10;5.50;;;22.20;99.90;;;;;;9592466;23;20225;-90
2023/08/18 05:56:52;;;;;;;6.35;5.35;;;22.20;99.90;;;;;;9592200;23;20186;-90
2023/08/18 06:00:38;;;;;;;7.10;5.40;;;22.20;99.90;;;;;;9592971;23;20162;-89
2023/08/18 06:04:23;;;;;;;5.90;5.30;;;22.10;99.90;;;;;;9592720;23;20186;-90
2023/08/18 06:08:09;;;;;;;6.20;5.60;;;22.10;99.90;;;;;;9592154;23;20709;-91
2023/08/18 06:11:54;;;;;;;6.05;5.50;;;22.10;99.90;;;;;;9592396;23;20542;-90
2023/08/18 06:15:40;;;;;;;7.10;5.70;;;22.20;99.90;;;;;;9592388;23;20622;-90
2023/08/18 06:19:26;;;;;;;6.70;5.93;;;22.20;99.90;;;;;;9592148;23;20186;-91
2023/08/18 06:23:11;;;;;;;13.20;7.32;;;22.20;99.90;;;;;;9592544;23;20170;-90
2023/08/18 06:26:57;;;;;;;7.53;6.18;;;22.20;99.90;;;;;;9592007;23;20198;-89
2023/08/18 06:30:42;;;;;;;9.90;7.50;;;22.10;99.90;;;;;;9592076;23;20162;-90
2023/08/18 06:34:28;;;;;;;8.15;6.68;;;22.20;99.90;;;;;;9594933;23;20520;-89
2023/08/18 06:38:14;;;;;;;8.18;7.05;;;22.20;99.90;;;;;;9594863;23;20182;-89
2023/08/18 06:41:59;;;;;;;7.10;6.40;;;22.30;99.90;;;;;;9595198;23;20162;-91
2023/08/18 06:45:45;;;;;;;13.50;7.55;;;22.30;99.90;;;;;;9594756;23;20194;-91
2023/08/18 06:49:33;;;;;;;8.80;7.90;;;22.50;99.90;;;;;;9598005;23;20155;-91
2023/08/18 06:53:18;;;;;;;9.63;7.50;;;22.70;99.90;;;;;;9596235;23;20174;-92
2023/08/18 06:57:04;;;;;;;8.30;6.35;;;23.30;99.90;;;;;;9598681;23;20174;-92
2023/08/18 07:00:50;;;;;;;7.97;7.18;;;23.70;99.90;;;;;;9597343;23;20166;-92
2023/08/18 07:04:38;;;;;;;8.68;7.00;;;24.10;99.90;;;;;;9597058;23;20184;-91
2023/08/18 07:08:24;;;;;;;10.20;7.20;;;24.40;99.90;;;;;;9597840;23;20241;-92
2023/08/18 07:12:11;;;;;;;7.75;6.82;;;24.60;99.90;;;;;;9597078;23;20250;-91
2023/08/18 07:15:57;;;;;;;8.10;7.28;;;24.80;99.90;;;;;;9597702;23;20185;-92
2023/08/18 07:19:43;;;;;;;7.53;6.72;;;24.90;99.90;;;;;;9597581;23;20602;-92
2023/08/18 07:23:29;;;;;;;11.70;6.88;;;25.00;99.90;;;;;;9598011;23;20174;-92
2023/08/18 07:27:33;;;;;;;9.73;7.10;;;25.20;99.90;;;;;;9599500;23;20261;-91
2023/08/18 07:31:18;;;;;;;10.25;7.40;;;25.30;99.90;;;;;;9599689;23;20636;-91
2023/08/18 07:35:08;;;;;;;7.68;6.95;;;25.30;99.90;;;;;;9598601;23;20182;-92
2023/08/18 07:38:54;;;;;;;7.75;6.95;;;25.40;99.90;;;;;;9600239;23;20166;-91
2023/08/18 07:42:40;;;;;;;7.90;7.18;;;25.50;99.90;;;;;;9599071;23;20159;-91
2023/08/18 07:46:28;;;;;;;8.93;7.00;;;25.60;99.90;;;;;;9599658;23;20197;-91
2023/08/18 07:50:14;;;;;;;8.82;7.43;;;25.70;99.90;;;;;;9599443;23;20166;-92
2023/08/18 07:53:59;;;;;;;8.32;7.45;;;25.90;99.90;;;;;;9598875;23;20162;-92
2023/08/18 07:57:45;;;;;;;8.20;7.38;;;26.00;99.90;;;;;;9597417;23;20653;-92
2023/08/18 08:01:31;;;;;;;9.07;7.13;;;25.90;99.90;;;;;;9598766;23;20163;-91
2023/08/18 08:05:19;;;;;;;8.10;7.30;;;25.90;99.90;;;;;;9599039;23;20194;-92
2023/08/18 08:09:05;;;;;;;8.30;7.40;;;25.80;99.90;;;;;;9600532;23;20193;-92
2023/08/18 08:12:52;;;;;;;8.50;7.63;;;25.80;99.90;;;;;;9598860;23;20159;-91
2023/08/18 08:16:38;;;;;;;9.10;7.13;;;26.00;99.90;;;;;;9599530;23;20233;-91
2023/08/18 08:20:24;;;;;;;8.43;7.22;;;26.20;99.90;;;;;;9597864;23;20245;-92
2023/08/18 08:24:09;;;;;;;7.35;6.65;;;26.30;99.90;;;;;;9596747;23;20187;-91
2023/08/18 08:27:55;;;;;;;7.65;6.80;;;26.40;99.90;;;;;;9596791;23;20229;-91
2023/08/18 08:31:41;;;;;;;7.82;7.03;;;26.60;99.90;;;;;;9598550;23;20358;-91
2023/08/18 08:35:27;;;;;;;9.43;7.20;;;26.60;99.90;;;;;;9596240;23;20221;-91
2023/08/18 08:39:13;;;;;;;8.60;7.47;;;26.70;99.90;;;;;;9596264;23;20155;-92
2023/08/18 08:42:59;;;;;;;9.63;7.63;;;26.90;99.90;;;;;;9594927;23;20197;-91
2023/08/18 08:46:45;;;;;;;9.65;7.43;;;26.90;99.90;;;;;;9594761;23;20190;-91
2023/08/18 08:50:36;;;;;;;7.55;6.85;;;27.00;99.90;;;;;;9595208;23;20178;-90
2023/08/18 08:54:31;;;;;;;9.00;7.28;;;27.00;99.90;;;;;;9595187;23;20143;-90
2023/08/18 08:58:18;;;;;;;11.60;7.18;;;27.00;99.90;;;;;;9595318;23;20181;-91
2023/08/18 09:02:06;;;;;;;9.85;7.13;;;27.00;99.90;;;;;;9594342;23;20154;-90
2023/08/18 09:05:57;;;;;;;10.73;7.10;;;27.10;99.90;;;;;;9595978;23;20522;-91
2023/08/18 09:09:44;;;;;;;7.72;6.93;;;27.20;99.90;;;;;;9594479;23;20150;-90
2023/08/18 09:13:29;;;;;;;10.73;7.82;;;27.20;99.90;;;;;;9594867;23;20153;-91
2023/08/18 09:17:16;;;;;;;8.57;7.78;;;27.30;99.90;;;;;;9596087;23;20786;-90
2023/08/18 09:21:06;;;;;;;8.48;6.90;;;27.40;99.90;;;;;;9594933;23;20177;-89
2023/08/18 09:24:52;;;;;;;7.25;6.50;;;27.40;99.90;;;;;;9595016;23;20242;-92
2023/08/18 09:28:38;;;;;;;7.70;7.00;;;27.50;99.90;;;;;;9595604;23;20205;-91
2023/08/18 09:32:24;;;;;;;7.97;7.18;;;27.50;99.90;;;;;;9595657;23;20154;-91
2023/08/18 09:36:12;;;;;;;8.43;6.68;;;27.50;99.90;;;;;;9595551;23;20189;-91
2023/08/18 09:40:00;;;;;;;8.35;7.10;;;27.50;99.90;;;;;;9595391;23;20170;-92
2023/08/18 09:43:46;;;;;;;9.18;6.60;;;27.60;99.90;;;;;;9595754;23;20179;-91
2023/08/18 09:47:35;;;;;;;6.57;5.97;;;27.70;99.90;;;;;;9595483;23;20782;-91
2023/08/18 09:51:24;;;;;;;10.05;6.40;;;27.70;98.90;;;;;;9596075;23;20155;-91
2023/08/18 09:55:13;;;;;;;11.10;6.72;;;27.80;99.20;;;;;;9597135;23;20201;-91
2023/08/18 09:59:38;;;;;;;6.97;6.05;;;27.90;98.40;;;;;;9597171;23;20178;-91
2023/08/18 10:03:30;;;;;;;7.88;6.57;;;27.90;97.90;;;;;;9620652;23;20149;-91
2023/08/18 10:07:17;;;;;;;9.45;6.60;;;28.00;98.00;;;;;;9596647;23;20322;-91
2023/08/18 10:11:03;;;;;;;8.40;6.28;;;28.10;98.60;;;;;;9598213;23;20158;-91
2023/08/18 10:14:51;;;;;;;6.88;5.75;;;28.20;98.50;;;;;;9598280;23;20245;-91
2023/08/18 10:18:42;;;;;;;6.50;5.90;;;28.30;97.30;;;;;;9598049;23;20182;-90
2023/08/18 10:22:34;;;;;;;6.60;6.00;;;28.30;96.40;;;;;;9600126;23;20150;-91
2023/08/18 10:26:23;;;;;;;6.32;5.65;;;28.40;96.50;;;;;;9597581;23;20729;-91
2023/08/18 10:30:10;;;;;;;6.60;6.00;;;28.50;95.30;;;;;;9598039;23;20154;-91
2023/08/18 10:34:01;;;;;;;8.90;5.90;;;28.60;95.90;;;;;;9597444;23;20591;-90
2023/08/18 10:37:58;;;;;;;10.27;6.43;;;28.60;95.70;;;;;;9596326;23;20190;-91
2023/08/18 10:42:04;;;;;;;6.15;5.55;;;28.70;96.10;;;;;;9598445;23;20508;-91
2023/08/18 10:45:56;;;;;;;7.28;5.88;;;28.70;95.40;;;;;;9598117;23;20221;-90
2023/08/18 10:49:42;;;;;;;9.73;6.32;;;28.80;95.00;;;;;;9598056;23;20178;-92
2023/08/18 10:53:37;;;;;;;6.53;5.88;;;28.80;94.50;;;;;;9598561;23;20478;-92
2023/08/18 10:57:27;;;;;;;8.35;6.30;;;28.80;94.60;;;;;;9602479;23;20204;-92
2023/08/18 11:01:13;;;;;;;7.97;5.85;;;28.90;94.00;;;;;;9600147;23;20155;-91
2023/08/18 11:05:00;;;;;;;8.10;6.30;;;28.90;93.40;;;;;;9607438;23;20561;-91
2023/08/18 11:08:45;;;;;;;6.72;5.97;;;29.00;93.60;;;;;;9602511;23;20143;-92
2023/08/18 11:12:34;;;;;;;8.82;6.40;;;29.00;92.40;;;;;;9600063;23;20313;-93
2023/08/18 11:16:22;;;;;;;8.20;6.13;;;29.10;92.10;;;;;;9597621;23;20206;-91
2023/08/18 11:20:11;;;;;;;8.73;5.70;;;29.10;93.60;;;;;;9604704;23;20167;-93
2023/08/18 11:23:57;;;;;;;6.45;5.85;;;29.30;94.50;;;;;;9600188;23;20187;-92
2023/08/18 11:27:47;;;;;;;6.55;5.78;;;29.30;92.20;;;;;;9599586;23;20532;-92
2023/08/18 11:31:33;;;;;;;6.07;5.45;;;29.40;93.30;;;;;;9599990;23;20237;-92
2023/08/18 11:35:24;;;;;;;6.43;5.72;;;29.40;91.80;;;;;;9596711;23;20190;-92
2023/08/18 11:39:11;;;;;;;7.40;5.10;;;29.40;90.50;;;;;;9594754;23;20506;-92
2023/08/18 11:42:57;;;;;;;6.30;5.70;;;29.50;90.10;;;;;;9595961;23;20159;-93
2023/08/18 11:46:43;;;;;;;8.23;6.07;;;29.50;90.80;;;;;;9595264;23;20238;-91
2023/08/18 11:50:34;;;;;;;5.97;5.03;;;29.60;90.10;;;;;;9595230;23;20166;-92
2023/08/18 11:54:20;;;;;;;5.95;5.45;;;29.70;90.10;;;;;;9595009;23;20185;-92
2023/08/18 11:58:10;;;;;;;5.72;5.20;;;29.70;90.10;;;;;;9595624;23;20178;-92
2023/08/18 12:02:07;;;;;;;6.22;5.55;;;29.80;90.00;;;;;;9596310;23;20166;-93
2023/08/18 12:06:05;;;;;;;5.97;5.43;;;29.90;89.40;;;;;;9595210;23;20245;-92
2023/08/18 12:09:51;;;;;;;7.80;5.93;;;29.80;89.80;;;;;;9598028;23;20209;-92
2023/08/18 12:13:36;;;;;;;9.02;5.90;;;29.80;91.20;;;;;;9594807;23;20234;-92
2023/08/18 12:17:22;;;;;;;6.57;5.97;;;29.80;91.40;;;;;;9599075;23;20175;-92
2023/08/18 12:21:11;;;;;;;7.30;6.28;;;29.90;91.40;;;;;;9595756;23;20159;-92
2023/08/18 12:24:56;;;;;;;7.63;6.07;;;29.90;90.70;;;;;;9594835;23;20222;-92
2023/08/18 12:28:47;;;;;;;6.30;5.70;;;29.90;89.30;;;;;;9594750;23;20159;-92
2023/08/18 12:32:33;;;;;;;6.47;5.35;;;29.90;88.70;;;;;;9595884;23;20147;-93
2023/08/18 12:36:19;;;;;;;7.95;5.50;;;29.90;88.40;;;;;;9595593;23;20253;-92
2023/08/18 12:40:10;;;;;;;10.27;5.30;;;30.10;89.10;;;;;;9595860;23;20163;-93
2023/08/18 12:43:55;;;;;;;7.38;5.97;;;30.00;86.70;;;;;;9595672;23;20750;-92
2023/08/18 12:47:41;;;;;;;6.32;5.72;;;30.10;87.20;;;;;;9595532;23;20503;-92
2023/08/18 12:51:27;;;;;;;7.32;6.18;;;30.10;86.50;;;;;;9595073;23;20162;-92
2023/08/18 12:55:12;;;;;;;8.07;5.90;;;30.20;87.10;;;;;;9595416;23;20179;-93
2023/08/18 12:58:58;;;;;;;6.53;5.90;;;30.20;88.40;;;;;;9594695;23;20158;-92
2023/08/18 13:02:44;;;;;;;6.85;5.40;;;30.30;87.30;;;;;;9595640;23;20147;-91
2023/08/18 13:06:29;;;;;;;6.80;5.10;;;30.30;87.70;;;;;;9594792;23;20273;-92
2023/08/18 13:10:19;;;;;;;6.88;5.53;;;30.30;87.80;;;;;;9595451;23;20209;-92
2023/08/18 13:14:04;;;;;;;5.75;5.15;;;30.30;86.10;;;;;;9594678;23;20537;-92
2023/08/18 13:17:50;;;;;;;9.88;5.35;;;30.30;90.00;;;;;;9594330;23;20328;-92
2023/08/18 13:21:36;;;;;;;10.85;5.72;;;30.30;84.60;;;;;;9594209;23;20221;-92
2023/08/18 13:25:34;;;;;;;6.30;5.63;;;30.20;84.90;;;;;;9596009;23;20186;-92
2023/08/18 13:29:20;;;;;;;9.10;6.53;;;30.20;86.20;;;;;;9594268;23;20194;-93
2023/08/18 13:33:06;;;;;;;6.88;5.68;;;30.20;84.60;;;;;;9595574;23;20490;-93
2023/08/18 13:36:52;;;;;;;9.75;5.95;;;30.20;86.40;;;;;;9595337;23;20182;-92
2023/08/18 13:40:37;;;;;;;7.55;6.00;;;30.10;88.20;;;;;;9595956;23;20146;-92
2023/08/18 13:44:23;;;;;;;5.78;5.28;;;30.00;89.80;;;;;;9611219;22;20208;-87
2023/08/18 13:48:09;;;;;;;6.35;5.75;;;30.10;88.60;;;;;;9688635;23;20154;-88
2023/08/18 13:51:54;;;;;;;6.93;5.50;;;30.10;88.60;;;;;;9692506;23;20157;-88
2023/08/18 13:55:43;;;;;;;6.18;5.57;;;30.10;89.10;;;;;;9685996;23;20177;-89
2023/08/18 13:59:28;;;;;;;5.85;5.20;;;30.10;88.70;;;;;;9685814;23;20165;-88
2023/08/18 14:03:14;;;;;;;6.38;5.40;;;30.00;88.00;;;;;;9687468;23;20177;-89
2023/08/18 14:07:00;;;;;;;6.05;5.45;;;30.00;88.20;;;;;;9686638;23;20185;-89
2023/08/18 14:10:46;;;;;;;5.60;5.00;;;30.00;87.10;;;;;;9685872;23;20593;-88
2023/08/18 14:14:32;;;;;;;6.03;5.45;;;30.10;88.90;;;;;;9686966;23;20566;-89
2023/08/18 14:18:17;;;;;;;7.72;5.20;;;30.10;87.00;;;;;;9688074;23;20157;-88
2023/08/18 14:22:03;;;;;;;5.32;4.82;;;30.10;87.00;;;;;;9687534;23;20590;-88
2023/08/18 14:25:48;;;;;;;7.70;5.50;;;30.10;87.50;;;;;;9687147;23;20527;-88
2023/08/18 14:29:34;;;;;;;5.85;5.07;;;30.20;86.80;;;;;;9689123;23;20211;-94
2023/08/18 14:33:20;;;;;;;7.03;5.35;;;30.10;84.10;;;;;;9694394;22;20246;-88
2023/08/18 14:37:06;;;;;;;6.18;5.43;;;30.10;85.80;;;;;;9688563;23;20166;-88
2023/08/18 14:40:51;;;;;;;9.43;5.60;;;30.20;86.40;;;;;;9689520;23;20150;-88
2023/08/18 14:44:37;;;;;;;6.18;5.50;;;30.30;85.10;;;;;;9686520;23;20618;-89
2023/08/18 14:48:22;;;;;;;5.85;5.20;;;30.20;85.40;;;;;;9682632;23;20500;-89
2023/08/18 14:52:08;;;;;;;7.70;5.25;;;30.20;86.70;;;;;;9681370;23;20173;-90
2023/08/18 14:55:54;;;;;;;9.57;5.43;;;30.30;87.10;;;;;;9682453;23;20597;-89
2023/08/18 14:59:42;;;;;;;6.80;5.93;;;30.40;87.70;;;;;;9682628;23;20539;-89
2023/08/18 15:03:28;;;;;;;6.15;5.57;;;30.40;86.50;;;;;;9684629;23;20203;-89
2023/08/18 15:07:14;;;;;;;6.40;5.50;;;30.40;86.20;;;;;;9684274;23;20169;-89
2023/08/18 15:10:59;;;;;;;8.20;5.53;;;30.40;87.10;;;;;;9685545;23;20207;-89
2023/08/18 15:14:45;;;;;;;5.85;5.25;;;30.50;85.60;;;;;;9684587;23;20177;-89
2023/08/18 15:18:30;;;;;;;9.48;5.22;;;30.40;84.40;;;;;;9684349;23;20165;-89
2023/08/18 15:22:16;;;;;;;6.53;5.63;;;30.40;84.20;;;;;;9685079;23;20593;-90
2023/08/18 15:26:04;;;;;;;6.13;5.60;;;30.50;84.20;;;;;;9685802;23;20199;-90
2023/08/18 15:29:49;;;;;;;6.38;5.63;;;30.50;84.30;;;;;;9685098;23;20161;-90
2023/08/18 15:33:35;;;;;;;5.75;5.25;;;30.60;83.40;;;;;;9686162;23;20208;-89
2023/08/18 15:37:21;;;;;;;7.15;5.32;;;30.70;82.50;;;;;;9686400;23;20156;-89
2023/08/18 15:41:07;;;;;;;5.63;5.13;;;30.80;81.90;;;;;;9686771;23;20157;-89
2023/08/18 15:44:53;;;;;;;6.55;5.20;;;30.80;81.70;;;;;;9682933;23;20220;-89
2023/08/18 15:48:38;;;;;;;5.72;5.13;;;30.90;83.10;;;;;;9684707;23;20157;-89
2023/08/18 15:52:24;;;;;;;5.82;4.82;;;30.80;81.00;;;;;;9684674;23;20184;-91
2023/08/18 15:56:13;;;;;;;5.22;4.72;;;30.90;82.30;;;;;;9691186;23;20236;-90
2023/08/18 15:59:58;;;;;;;6.20;5.47;;;30.90;81.70;;;;;;9687629;23;20158;-88
2023/08/18 16:03:44;;;;;;;8.77;5.47;;;30.90;79.00;;;;;;9686244;23;20231;-90
2023/08/18 16:07:29;;;;;;;9.55;5.28;;;30.80;80.70;;;;;;9684163;23;20609;-90
2023/08/18 16:11:17;;;;;;;6.57;4.93;;;30.80;80.70;;;;;;9685016;23;20582;-88
2023/08/18 16:15:03;;;;;;;5.53;5.03;;;30.90;81.00;;;;;;9684976;23;20181;-88
2023/08/18 16:18:52;;;;;;;7.03;5.50;;;31.00;81.40;;;;;;9686073;23;20161;-88
2023/08/18 16:22:42;;;;;;;6.47;5.07;;;31.00;81.50;;;;;;9685241;23;20181;-86
2023/08/18 16:26:28;;;;;;;5.93;5.35;;;31.00;80.20;;;;;;9686767;22;20165;-86
2023/08/18 16:30:14;;;;;;;5.68;5.10;;;31.00;81.50;;;;;;9684445;23;20158;-86
2023/08/18 16:33:59;;;;;;;5.38;4.88;;;31.00;81.90;;;;;;9684390;23;20187;-88
2023/08/18 16:37:45;;;;;;;5.97;5.38;;;31.10;82.70;;;;;;9688873;23;20184;-87
2023/08/18 16:41:31;;;;;;;6.05;5.55;;;31.10;82.40;;;;;;9688346;23;20153;-88
2023/08/18 16:45:16;;;;;;;5.95;5.28;;;31.20;82.10;;;;;;9686498;23;20263;-88
2023/08/18 16:49:03;;;;;;;14.40;6.18;;;31.20;81.80;;;;;;9687367;23;20173;-87
2023/08/18 16:52:48;;;;;;;7.00;5.63;;;31.20;79.80;;;;;;9685852;23;20181;-87
2023/08/18 16:56:36;;;;;;;6.47;5.32;;;31.10;80.40;;;;;;9684957;23;20605;-87
2023/08/18 17:00:23;;;;;;;6.57;5.50;;;31.10;81.50;;;;;;9687280;23;20164;-87
2023/08/18 17:04:09;;;;;;;5.78;5.18;;;31.10;81.20;;;;;;9684797;23;20530;-87
2023/08/18 17:07:54;;;;;;;5.85;5.22;;;31.10;80.80;;;;;;9684818;23;20157;-87
2023/08/18 17:11:40;;;;;;;6.93;5.70;;;31.00;80.40;;;;;;9683827;23;20196;-87
2023/08/18 17:15:26;;;;;;;5.32;4.93;;;31.00;81.50;;;;;;9684081;23;20181;-87
2023/08/18 17:19:12;;;;;;;5.65;5.10;;;31.00;82.00;;;;;;9684838;23;20597;-87
2023/08/18 17:22:57;;;;;;;5.57;5.07;;;31.10;81.80;;;;;;9684732;23;20182;-87
2023/08/18 17:26:43;;;;;;;8.40;5.10;;;31.10;82.00;;;;;;9683443;22;20165;-85
2023/08/18 17:30:30;;;;;;;5.57;5.07;;;31.10;81.50;;;;;;9682167;23;20262;-85
2023/08/18 17:38:03;;;;;;;5.25;4.85;;;31.00;84.30;;;;;;9684416;23;20640;-86
2023/08/18 17:41:49;;;;;;;5.60;5.07;;;30.90;84.90;;;;;;9657771;23;20233;-86
2023/08/18 17:45:39;;;;;;;6.63;5.30;;;30.90;85.40;;;;;;9684566;23;20184;-86
2023/08/18 17:49:25;;;;;;;5.47;4.90;;;30.90;85.80;;;;;;9657671;23;20560;-86
2023/08/18 17:53:10;;;;;;;5.47;4.78;;;30.80;86.10;;;;;;9657763;23;20149;-85
2023/08/18 17:56:57;;;;;;;6.97;5.00;;;30.80;86.60;;;;;;9656736;23;20185;-85
2023/08/18 18:00:43;;;;;;;5.05;4.63;;;30.70;87.10;;;;;;9685156;23;20137;-86
2023/08/18 18:04:29;;;;;;;6.20;5.03;;;30.70;86.70;;;;;;9657359;23;20627;-86
2023/08/18 18:08:15;;;;;;;10.93;4.70;;;30.70;87.80;;;;;;9657038;23;20161;-87
2023/08/18 18:12:01;;;;;;;7.60;5.10;;;30.60;87.00;;;;;;9655962;23;20516;-87
2023/08/18 18:15:46;;;;;;;5.47;5.00;;;30.60;87.60;;;;;;9655920;23;20274;-87
2023/08/18 18:19:32;;;;;;;5.38;4.85;;;30.50;87.80;;;;;;9656588;23;20164;-86
2023/08/18 18:23:18;;;;;;;6.15;5.20;;;30.50;88.10;;;;;;9657250;23;20613;-87
2023/08/18 18:27:05;;;;;;;6.50;5.25;;;30.40;88.50;;;;;;9683836;23;20180;-87
2023/08/18 18:30:51;;;;;;;6.15;5.15;;;30.30;88.80;;;;;;9659002;23;20160;-88
2023/08/18 18:34:37;;;;;;;8.23;5.40;;;30.30;88.80;;;;;;9658857;23;20232;-87
2023/08/18 18:38:23;;;;;;;7.18;5.30;;;30.30;88.50;;;;;;9687453;23;20145;-87
2023/08/18 18:42:11;;;;;;;6.43;5.78;;;30.20;88.50;;;;;;9661282;23;20165;-87
2023/08/18 18:46:00;;;;;;;8.88;5.53;;;30.20;89.20;;;;;;9660917;23;20189;-87
2023/08/18 18:49:47;;;;;;;7.10;5.70;;;30.20;88.20;;;;;;9687528;23;20154;-88
2023/08/18 18:53:32;;;;;;;6.35;4.97;;;30.10;89.10;;;;;;9660224;23;20157;-88
2023/08/18 18:57:18;;;;;;;6.72;5.68;;;30.00;89.30;;;;;;9660117;23;20244;-87
2023/08/18 19:01:05;;;;;;;7.65;5.90;;;29.90;89.50;;;;;;9661028;23;20154;-87
2023/08/18 19:04:51;;;;;;;6.65;5.85;;;29.90;89.90;;;;;;9660418;23;20611;-87
2023/08/18 19:08:37;;;;;;;6.35;5.70;;;29.90;89.50;;;;;;9687079;23;20137;-87
2023/08/18 19:12:24;;;;;;;7.15;5.75;;;29.80;89.40;;;;;;9660772;23;20161;-87
2023/08/18 19:16:10;;;;;;;6.95;5.78;;;29.80;90.20;;;;;;9661585;23;20239;-88
2023/08/18 19:19:58;;;;;;;6.97;5.88;;;29.70;90.20;;;;;;9660125;23;20244;-87
2023/08/18 19:23:45;;;;;;;7.05;5.50;;;29.70;90.30;;;;;;9660775;23;20157;-87
2023/08/18 19:27:30;;;;;;;6.43;5.38;;;29.60;90.20;;;;;;9656639;23;20254;-87
2023/08/18 19:31:16;;;;;;;5.95;5.40;;;29.50;90.10;;;;;;9659435;23;20157;-87
2023/08/18 19:35:04;;;;;;;6.30;5.40;;;29.50;90.60;;;;;;9658274;23;20192;-87
2023/08/18 19:38:50;;;;;;;5.57;5.03;;;29.40;90.50;;;;;;9686430;23;20208;-86
2023/08/18 19:42:35;;;;;;;6.13;5.63;;;29.40;90.50;;;;;;9660052;23;20667;-88